Aérodrome :
LOGIN :

S'inscrire | Disclaimer

   EN    FR    IT 

 










Légende :    VFR   VFR Marginal   IFR   IFR Intensif   IFR Très Intensif
Visi : 
Plafond : 
>= 8 km
>= 3000ft
5 à 8 km
1000 à 3000 ft
1500m à 5 km
500 à 1000 ft
800 à 1500m
200 à 500 ft
< 800m
< 200 ft
Symboles :   Orages  Brouillard  Fortes neiges  Fortes précipitations  Vent > 20 kt
SIGMETs :   Divers  Orages  Givrage  Turbulence  Onde Orograph.  Cendres Volcan.







- Altitude de l'aérodrome : 101 ft
- Code IATA : GLO
- Voir les cartes d'approche


EGBJ - Gloucestershire

DERNIER METAR :
  • 241150Z 15003KT 5000 RA SCT024 BKN045 15/13 Q0990

METARs EXPIRÉS :
  • 241120Z 00000KT 6000 -RA SCT024 BKN045 16/12 Q0990
  • 241050Z 00000KT 9000 VCSH FEW022 SCT038 16/11 Q0990
  • 241020Z 04003KT 8000 FEW020 16/12 Q0990
  • 240950Z 35003KT 8000 FEW045 15/11 Q0990
  • 240920Z 36003KT 7000 NSC 15/11 Q0991

TAF TAF EGBJ
Valide du 24 à 12h jusqu'au 24 à 19h UTC


241104Z 2412/2419 01002KT 9999 SCT040
BECMG 2412/2415 21010KT
TEMPO 2412/2415 7000 RA
PROB30
TEMPO 2412/2415 4000 +RA BKN014 BKN030CB
PROB30
TEMPO 2415/2419 7000 SHRA BKN014
Pas de NOTAMs connus pour ce terrain.



MET'MAP, la Météo Aéronautique d'un coup d'oeil ! - Copyright ORBIFLY Décembre 2007 - Disclaimer

ORBIFLY MET'MAP TEAM :

Programmation & Développement : Alexandra Zaïnal
Conception & Développement : Baudouin d'Aumeries
Co-Programmation & Développement : Marc-Olivier Méhu
Soutien technique & logistique : Manuel Goepfert

Contact : metmap@orbifly.com




SOURCES & CREDITS :

   NOAA